createdAt,value
2022-12-28T00:01:23.557Z,6.59
2022-12-28T00:03:52.529Z,6.67
2022-12-28T00:06:22.398Z,6.67
2022-12-28T00:08:53.798Z,6.56
2022-12-28T00:11:26.478Z,6.75
2022-12-28T00:14:00.727Z,6.67
2022-12-28T00:16:31.052Z,6.79
2022-12-28T00:19:01.130Z,6.82
2022-12-28T00:21:30.185Z,6.91
2022-12-28T00:24:00.894Z,6.93
2022-12-28T00:26:31.766Z,6.93
2022-12-28T00:29:04.597Z,6.99
2022-12-28T00:31:33.582Z,6.99
2022-12-28T00:34:01.983Z,7.02
2022-12-28T00:37:09.901Z,7.04
2022-12-28T00:39:20.817Z,7.10
2022-12-28T00:41:49.225Z,7.12
2022-12-28T00:44:17.450Z,7.12
2022-12-28T00:46:45.742Z,7.15
2022-12-28T00:49:14.113Z,7.14
2022-12-28T00:51:42.339Z,7.10
2022-12-28T00:54:10.661Z,7.14
2022-12-28T00:56:41.786Z,7.10
2022-12-28T00:59:10.687Z,7.12
2022-12-28T01:01:39.808Z,7.11
2022-12-28T01:04:08.082Z,7.16
2022-12-28T01:06:36.340Z,7.17
2022-12-28T01:09:06.576Z,7.15
2022-12-28T01:11:36.025Z,7.24
2022-12-28T01:14:06.521Z,7.24
2022-12-28T01:16:36.530Z,7.25
2022-12-28T01:19:07.445Z,7.27
2022-12-28T01:21:37.591Z,7.29
2022-12-28T01:24:08.841Z,7.26
2022-12-28T01:26:37.637Z,7.26
2022-12-28T01:29:10.648Z,7.30
2022-12-28T01:31:38.889Z,7.29
2022-12-28T01:34:07.132Z,7.33
2022-12-28T01:36:36.043Z,7.35
2022-12-28T01:39:08.030Z,7.43
2022-12-28T01:41:39.521Z,7.45
2022-12-28T01:44:44.391Z,7.39
2022-12-28T01:47:20.693Z,7.33
2022-12-28T01:49:55.343Z,7.26
2022-12-28T01:52:28.807Z,7.30
2022-12-28T01:55:01.019Z,7.30
2022-12-28T01:57:34.764Z,7.24
2022-12-28T02:00:06.274Z,7.31
2022-12-28T02:02:45.629Z,7.33
2022-12-28T02:05:14.913Z,7.34
2022-12-28T02:07:47.736Z,7.41
2022-12-28T02:10:44.031Z,7.43
2022-12-28T02:13:06.624Z,7.44
2022-12-28T02:15:34.952Z,7.49
2022-12-28T02:18:05.143Z,7.47
2022-12-28T02:20:41.459Z,7.52
2022-12-28T02:23:28.660Z,7.57
2022-12-28T02:26:32.252Z,7.62
2022-12-28T02:29:16.538Z,7.67
2022-12-28T02:31:50.345Z,7.65
2022-12-28T02:34:27.709Z,7.75
2022-12-28T02:37:03.813Z,7.76
2022-12-28T02:39:39.438Z,7.78
2022-12-28T02:42:11.027Z,7.82
2022-12-28T02:44:58.365Z,7.83
2022-12-28T02:47:43.884Z,7.81
2022-12-28T02:50:16.656Z,7.90
2022-12-28T02:53:24.355Z,8.08
2022-12-28T02:56:09.522Z,8.06
2022-12-28T02:59:08.168Z,8.00
2022-12-28T03:02:06.364Z,8.07
2022-12-28T03:04:48.766Z,8.09
2022-12-28T03:07:39.220Z,8.09
2022-12-28T03:10:15.707Z,8.03
2022-12-28T03:12:49.755Z,7.98
2022-12-28T03:15:29.857Z,7.98
2022-12-28T03:18:24.473Z,8.11
2022-12-28T03:21:11.565Z,8.11
2022-12-28T03:24:01.094Z,8.07
2022-12-28T03:26:50.473Z,8.11
2022-12-28T03:29:39.425Z,8.12
2022-12-28T03:32:08.738Z,8.21
2022-12-28T03:34:39.874Z,8.20
2022-12-28T03:37:14.456Z,8.26
2022-12-28T03:39:51.782Z,8.32
2022-12-28T03:42:44.647Z,8.32
2022-12-28T03:45:44.385Z,8.30
2022-12-28T03:48:08.380Z,8.21
2022-12-28T03:50:40.563Z,8.19
2022-12-28T03:53:09.251Z,8.22
2022-12-28T03:55:40.691Z,8.22
2022-12-28T03:58:09.318Z,8.22
2022-12-28T04:00:39.238Z,8.27
2022-12-28T04:03:08.860Z,8.29
2022-12-28T04:05:38.571Z,8.27
2022-12-28T04:08:06.771Z,8.33
2022-12-28T04:10:35.477Z,8.45
2022-12-28T04:13:03.790Z,8.49
2022-12-28T04:16:00.639Z,8.52
2022-12-28T04:18:31.939Z,8.56
2022-12-28T04:21:02.923Z,8.58
2022-12-28T04:23:32.421Z,8.61
2022-12-28T04:26:22.553Z,8.68
2022-12-28T04:28:54.158Z,8.70
2022-12-28T04:31:25.464Z,8.72
2022-12-28T04:34:14.284Z,8.73
2022-12-28T04:36:50.472Z,8.73
2022-12-28T04:39:21.652Z,8.79
2022-12-28T04:41:50.148Z,8.83
2022-12-28T04:44:18.363Z,8.85
2022-12-28T04:46:46.725Z,8.80
2022-12-28T04:49:15.071Z,8.81
2022-12-28T04:51:43.285Z,8.79
2022-12-28T04:54:14.715Z,8.78
2022-12-28T04:56:42.974Z,8.80
2022-12-28T04:59:11.189Z,8.86
2022-12-28T05:01:39.671Z,8.92
2022-12-28T05:04:07.993Z,8.92
2022-12-28T05:06:36.253Z,8.97
2022-12-28T05:09:04.891Z,8.93
2022-12-28T05:11:34.555Z,8.93
2022-12-28T05:14:02.843Z,8.95
2022-12-28T05:16:31.618Z,8.98
2022-12-28T05:18:59.927Z,9.00
2022-12-28T05:21:29.555Z,8.98
2022-12-28T05:23:58.549Z,9.05
2022-12-28T05:26:28.755Z,9.11
2022-12-28T05:28:59.494Z,9.11
2022-12-28T05:31:28.993Z,9.08
2022-12-28T05:33:57.568Z,9.07
2022-12-28T05:36:27.584Z,9.04
2022-12-28T05:38:57.443Z,9.04
2022-12-28T05:41:27.238Z,9.04
2022-12-28T05:43:55.810Z,9.07
2022-12-28T05:46:27.834Z,9.08
2022-12-28T05:48:56.583Z,9.05
2022-12-28T05:51:26.295Z,9.06
2022-12-28T05:53:54.547Z,9.11
2022-12-28T05:56:24.939Z,9.12
2022-12-28T05:58:55.476Z,9.15
2022-12-28T06:01:27.640Z,9.11
2022-12-28T06:03:57.883Z,9.11
2022-12-28T06:06:26.495Z,9.10
2022-12-28T06:08:55.108Z,9.07
2022-12-28T06:11:26.259Z,9.10
2022-12-28T06:13:54.956Z,9.08
2022-12-28T06:16:25.371Z,9.08
2022-12-28T06:18:55.325Z,9.11
2022-12-28T06:21:25.464Z,9.14
2022-12-28T06:23:57.639Z,9.16
2022-12-28T06:26:26.680Z,9.14
2022-12-28T06:28:54.945Z,9.11
2022-12-28T06:31:24.952Z,9.15
2022-12-28T06:33:57.205Z,9.18
2022-12-28T06:36:27.878Z,9.17
2022-12-28T06:38:58.923Z,9.18
2022-12-28T06:41:28.337Z,9.17
2022-12-28T06:43:57.393Z,9.11
2022-12-28T06:46:27.601Z,9.15
2022-12-28T06:48:57.842Z,9.11
2022-12-28T06:51:27.425Z,9.14
2022-12-28T06:53:56.282Z,9.17
2022-12-28T06:56:26.013Z,9.23
2022-12-28T06:59:00.524Z,9.23
2022-12-28T07:01:33.014Z,9.19
2022-12-28T07:04:03.707Z,9.16
2022-12-28T07:06:36.196Z,9.17
2022-12-28T07:09:06.429Z,9.18
2022-12-28T07:11:35.475Z,9.21
2022-12-28T07:14:03.700Z,9.22
2022-12-28T07:19:00.327Z,9.25
2022-12-28T07:21:31.747Z,9.24
2022-12-28T07:24:00.567Z,9.29
2022-12-28T07:26:31.160Z,9.31
2022-12-28T07:29:01.130Z,9.30
2022-12-28T07:31:31.749Z,9.26
2022-12-28T07:34:01.777Z,9.26
2022-12-28T07:36:32.852Z,9.27
2022-12-28T07:39:01.578Z,9.31
2022-12-28T07:41:32.895Z,9.32
2022-12-28T07:44:01.473Z,9.27
2022-12-28T07:46:31.551Z,9.26
2022-12-28T07:49:00.948Z,9.27
2022-12-28T07:51:32.129Z,9.27
2022-12-28T07:54:01.723Z,9.27
2022-12-28T07:56:30.954Z,9.25
2022-12-28T07:59:00.768Z,9.32
2022-12-28T08:01:31.835Z,9.32
2022-12-28T08:04:02.050Z,9.35
2022-12-28T08:06:34.220Z,9.36
2022-12-28T08:09:02.845Z,9.38
2022-12-28T08:11:33.625Z,9.40
2022-12-28T08:14:02.463Z,9.42
2022-12-28T08:16:33.512Z,9.42
2022-12-28T08:19:01.811Z,9.46
2022-12-28T08:21:33.390Z,9.40
2022-12-28T08:24:02.460Z,9.41
2022-12-28T08:26:32.551Z,9.44
2022-12-28T08:29:03.038Z,9.46
2022-12-28T08:31:34.088Z,9.45
2022-12-28T08:34:04.876Z,9.42
2022-12-28T08:36:34.675Z,9.42
2022-12-28T08:39:03.756Z,9.47
2022-12-28T08:41:32.562Z,9.44
2022-12-28T08:44:01.226Z,9.45
2022-12-28T08:46:32.904Z,9.44
2022-12-28T08:49:01.783Z,9.47
2022-12-28T08:51:33.140Z,9.42
2022-12-28T08:54:03.963Z,9.41
2022-12-28T08:56:34.088Z,9.41
2022-12-28T08:59:02.854Z,9.40
2022-12-28T09:01:37.290Z,9.36
2022-12-28T09:04:12.946Z,9.34
2022-12-28T09:06:41.483Z,9.32
2022-12-28T09:09:14.653Z,9.27
2022-12-28T09:11:47.298Z,9.18
2022-12-28T09:14:23.274Z,9.14
2022-12-28T09:16:52.825Z,9.14
2022-12-28T09:19:21.107Z,9.08
2022-12-28T09:21:52.563Z,9.07
2022-12-28T09:24:22.516Z,9.05
2022-12-28T09:26:52.961Z,9.08
2022-12-28T09:29:21.846Z,9.01
2022-12-28T09:31:50.073Z,9.03
2022-12-28T09:37:07.373Z,8.96
2022-12-28T09:39:37.233Z,8.95
2022-12-28T09:42:12.040Z,8.97
2022-12-28T09:44:49.350Z,8.93
2022-12-28T09:47:32.787Z,8.96
2022-12-28T09:50:30.170Z,8.92
2022-12-28T09:53:29.356Z,8.90
2022-12-28T09:56:06.471Z,8.90
2022-12-28T09:58:43.982Z,8.90
2022-12-28T10:01:17.558Z,8.92
2022-12-28T10:03:47.523Z,8.93
2022-12-28T10:06:17.373Z,8.94
2022-12-28T10:08:49.164Z,8.96
2022-12-28T10:11:22.240Z,8.97
2022-12-28T10:13:56.809Z,9.00
2022-12-28T10:16:28.174Z,9.00
2022-12-28T10:18:56.777Z,9.02
2022-12-28T10:21:32.512Z,9.03
2022-12-28T10:26:52.340Z,9.04
2022-12-28T10:29:22.899Z,9.03
2022-12-28T10:32:00.118Z,9.04
2022-12-28T10:34:36.948Z,9.00
2022-12-28T10:37:14.540Z,8.96
2022-12-28T10:39:51.136Z,9.01
2022-12-28T10:42:26.435Z,9.01
2022-12-28T10:44:59.276Z,9.00
2022-12-28T10:47:31.529Z,9.01
2022-12-28T10:50:35.466Z,8.98
2022-12-28T10:52:58.292Z,8.98
2022-12-28T10:55:31.447Z,8.97
2022-12-28T11:00:58.154Z,9.02
2022-12-28T11:03:28.500Z,9.05
2022-12-28T11:06:15.360Z,9.03
2022-12-28T11:08:45.537Z,9.09
2022-12-28T11:11:20.796Z,9.11
2022-12-28T11:13:53.711Z,9.09
2022-12-28T11:16:23.519Z,9.17
2022-12-28T11:18:52.268Z,9.17
2022-12-28T11:21:22.216Z,9.21
2022-12-28T11:23:52.310Z,9.20
2022-12-28T11:26:21.662Z,9.24
2022-12-28T11:28:51.920Z,9.31
2022-12-28T11:31:28.421Z,9.36
2022-12-28T11:34:00.048Z,9.44
2022-12-28T11:36:29.360Z,9.46
2022-12-28T11:38:58.424Z,9.47
2022-12-28T11:41:51.191Z,9.46
2022-12-28T11:44:52.943Z,9.52
2022-12-28T11:47:32.847Z,9.53
2022-12-28T11:50:42.392Z,9.55
2022-12-28T11:53:51.054Z,9.56
2022-12-28T11:56:25.112Z,9.59
2022-12-28T11:59:23.529Z,9.62
2022-12-28T12:01:53.894Z,9.64
2022-12-28T12:04:38.055Z,9.60
2022-12-28T12:07:23.651Z,9.65
2022-12-28T12:10:21.191Z,9.63
2022-12-28T12:12:52.168Z,9.67
2022-12-28T12:15:23.193Z,9.66
2022-12-28T12:17:56.311Z,9.66
2022-12-28T12:20:48.462Z,9.69
2022-12-28T12:23:26.801Z,9.64
2022-12-28T12:25:57.223Z,9.62
2022-12-28T12:28:35.150Z,9.63
2022-12-28T12:31:06.681Z,9.65
2022-12-28T12:33:37.398Z,9.68
2022-12-28T12:36:23.786Z,9.69
2022-12-28T12:39:11.375Z,9.71
2022-12-28T12:41:49.884Z,9.83
2022-12-28T12:44:26.659Z,9.82
2022-12-28T12:47:24.540Z,9.88
2022-12-28T12:50:26.951Z,9.92
2022-12-28T12:53:07.450Z,9.94
2022-12-28T12:55:50.600Z,9.97
2022-12-28T12:58:25.107Z,10.00
2022-12-28T13:01:16.011Z,10.03
2022-12-28T13:03:53.037Z,10.05
2022-12-28T13:06:25.417Z,10.08
2022-12-28T13:09:01.796Z,10.09
2022-12-28T13:11:38.082Z,10.09
2022-12-28T13:14:07.688Z,10.15
2022-12-28T13:16:35.964Z,10.13
2022-12-28T13:19:07.103Z,10.13
2022-12-28T13:21:43.023Z,10.14
2022-12-28T13:24:22.873Z,10.13
2022-12-28T13:26:51.558Z,10.12
2022-12-28T13:29:21.923Z,10.15
2022-12-28T13:31:51.441Z,10.16
2022-12-28T13:34:24.360Z,10.18
2022-12-28T13:36:56.562Z,10.14
2022-12-28T13:39:28.086Z,10.13
2022-12-28T13:41:59.422Z,10.08
2022-12-28T13:44:35.772Z,10.01
2022-12-28T13:47:08.666Z,10.00
2022-12-28T13:49:42.937Z,10.03
2022-12-28T13:52:16.289Z,10.12
2022-12-28T13:54:51.058Z,10.09
2022-12-28T13:57:45.844Z,10.16
2022-12-28T14:00:10.277Z,10.18
2022-12-28T14:02:41.749Z,10.20
2022-12-28T14:05:17.649Z,10.23
2022-12-28T14:07:46.550Z,10.23
2022-12-28T14:10:16.751Z,10.28
2022-12-28T14:12:45.874Z,10.31
2022-12-28T14:15:15.025Z,10.24
2022-12-28T14:17:44.686Z,10.21
2022-12-28T14:20:13.334Z,10.18
2022-12-28T14:22:42.546Z,10.18
2022-12-28T14:25:12.776Z,10.21
2022-12-28T14:27:45.619Z,10.18
2022-12-28T14:30:26.106Z,10.22
2022-12-28T14:32:55.249Z,10.19
2022-12-28T14:35:25.623Z,10.16
2022-12-28T14:37:56.384Z,10.18
2022-12-28T14:40:31.310Z,10.10
2022-12-28T14:43:04.442Z,10.05
2022-12-28T14:46:06.717Z,10.01
2022-12-28T14:48:34.840Z,9.99
2022-12-28T14:51:06.274Z,9.92
2022-12-28T14:53:34.602Z,9.89
2022-12-28T14:56:08.193Z,9.82
2022-12-28T14:58:50.783Z,9.70
2022-12-28T15:01:20.978Z,9.70
2022-12-28T15:03:51.807Z,9.67
2022-12-28T15:06:20.871Z,9.59
2022-12-28T15:08:50.355Z,9.53
2022-12-28T15:11:20.045Z,9.46
2022-12-28T15:13:50.275Z,9.37
2022-12-28T15:16:20.760Z,9.35
2022-12-28T15:18:49.056Z,9.38
2022-12-28T15:21:19.503Z,9.35
2022-12-28T15:23:50.289Z,9.27
2022-12-28T15:26:18.658Z,9.25
2022-12-28T15:28:47.202Z,9.24
2022-12-28T15:31:18.859Z,9.22
2022-12-28T15:33:47.956Z,9.25
2022-12-28T15:36:18.323Z,9.19
2022-12-28T15:38:47.137Z,9.15
2022-12-28T15:41:33.466Z,9.15
2022-12-28T15:44:01.777Z,9.19
2022-12-28T15:46:31.714Z,9.16
2022-12-28T15:49:02.777Z,9.23
2022-12-28T15:51:31.067Z,9.17
2022-12-28T15:53:59.329Z,9.18
2022-12-28T15:56:29.538Z,9.21
2022-12-28T15:58:59.321Z,9.18
2022-12-28T16:01:30.158Z,9.22
2022-12-28T16:04:02.237Z,9.17
2022-12-28T16:06:32.164Z,9.14
2022-12-28T16:09:03.444Z,9.14
2022-12-28T16:11:34.177Z,9.10
2022-12-28T16:14:05.134Z,9.08
2022-12-28T16:16:37.510Z,9.10
2022-12-28T16:19:09.015Z,9.16
2022-12-28T16:21:37.639Z,9.15
2022-12-28T16:24:07.036Z,9.11
2022-12-28T16:26:35.573Z,9.11
2022-12-28T16:29:04.163Z,9.14
2022-12-28T16:31:35.369Z,9.16
2022-12-28T16:34:05.753Z,9.12
2022-12-28T16:36:36.178Z,9.15
2022-12-28T16:39:07.220Z,9.12
2022-12-28T16:41:37.518Z,9.16
2022-12-28T16:44:09.372Z,9.16
2022-12-28T16:46:37.719Z,9.16
2022-12-28T16:49:06.886Z,9.21
2022-12-28T16:51:36.580Z,9.22
2022-12-28T16:54:05.265Z,9.24
2022-12-28T16:56:35.641Z,9.18
2022-12-28T16:59:03.985Z,9.15
2022-12-28T17:01:33.262Z,9.22
2022-12-28T17:04:04.071Z,9.20
2022-12-28T17:06:33.676Z,9.22
2022-12-28T17:09:04.381Z,9.20
2022-12-28T17:11:33.840Z,9.18
2022-12-28T17:14:03.368Z,9.17
2022-12-28T17:16:32.774Z,9.20
2022-12-28T17:19:01.459Z,9.24
2022-12-28T17:21:30.359Z,9.23
2022-12-28T17:23:58.917Z,9.18
2022-12-28T17:26:28.628Z,9.19
2022-12-28T17:28:57.397Z,9.22
2022-12-28T17:31:26.015Z,9.27
2022-12-28T17:33:55.659Z,9.30
2022-12-28T17:36:23.971Z,9.32
2022-12-28T17:38:52.315Z,9.35
2022-12-28T17:41:23.192Z,9.37
2022-12-28T17:43:54.505Z,9.40
2022-12-28T17:46:23.353Z,9.41
2022-12-28T17:48:53.192Z,9.37
2022-12-28T17:51:23.794Z,9.47
2022-12-28T17:53:52.661Z,9.48
2022-12-28T17:56:20.981Z,9.49
2022-12-28T17:58:49.626Z,9.55
2022-12-28T18:01:19.422Z,9.54
2022-12-28T18:03:47.793Z,9.57
2022-12-28T18:06:16.168Z,9.61
2022-12-28T18:08:44.586Z,9.62
2022-12-28T18:11:13.076Z,9.63
2022-12-28T18:13:42.388Z,9.63
2022-12-28T18:16:15.644Z,9.68
2022-12-28T18:18:45.355Z,9.69
2022-12-28T18:21:21.004Z,9.69
2022-12-28T18:23:51.859Z,9.69
2022-12-28T18:26:22.790Z,9.67
2022-12-28T18:28:51.449Z,9.71
2022-12-28T18:31:20.680Z,9.79
2022-12-28T18:33:50.683Z,9.78
2022-12-28T18:36:19.297Z,9.82
2022-12-28T18:38:48.446Z,9.83
2022-12-28T18:41:18.681Z,9.84
2022-12-28T18:43:47.051Z,9.86
2022-12-28T18:46:15.940Z,9.92
2022-12-28T18:48:44.253Z,9.98
2022-12-28T18:51:17.113Z,10.00
2022-12-28T18:53:45.721Z,10.01
2022-12-28T18:56:16.029Z,10.06
2022-12-28T18:58:45.165Z,10.06
2022-12-28T19:04:03.743Z,10.06
2022-12-28T19:06:34.755Z,10.13
2022-12-28T19:09:03.858Z,10.16
2022-12-28T19:11:32.354Z,10.14
2022-12-28T19:14:02.459Z,10.13
2022-12-28T19:16:32.052Z,10.14
2022-12-28T19:19:00.881Z,10.18
2022-12-28T19:21:30.896Z,10.16
2022-12-28T19:24:03.609Z,10.11
2022-12-28T19:26:33.472Z,10.12
2022-12-28T19:29:03.317Z,10.13
2022-12-28T19:31:33.768Z,10.15
2022-12-28T19:34:02.171Z,10.18
2022-12-28T19:36:30.448Z,10.15
2022-12-28T19:39:00.127Z,10.19
2022-12-28T19:41:28.367Z,10.16
2022-12-28T19:43:56.981Z,10.21
2022-12-28T19:46:31.378Z,10.26
2022-12-28T19:49:01.482Z,10.21
2022-12-28T19:51:32.155Z,10.20
2022-12-28T19:54:02.960Z,10.18
2022-12-28T19:56:32.522Z,10.24
2022-12-28T19:59:06.566Z,10.25
2022-12-28T20:01:37.159Z,10.33
2022-12-28T20:04:13.302Z,10.36
2022-12-28T20:06:43.693Z,10.40
2022-12-28T20:09:15.051Z,10.39
2022-12-28T20:11:45.017Z,10.45
2022-12-28T20:14:14.839Z,10.48
2022-12-28T20:16:44.058Z,10.50
2022-12-28T20:19:12.955Z,10.52
2022-12-28T20:21:42.489Z,10.51
2022-12-28T20:24:14.882Z,10.48
2022-12-28T20:26:43.225Z,10.48
2022-12-28T20:29:13.498Z,10.45
2022-12-28T20:31:41.850Z,10.42
2022-12-28T20:34:10.387Z,10.35
2022-12-28T20:36:38.662Z,10.30
2022-12-28T20:39:08.751Z,10.29
2022-12-28T20:41:56.852Z,10.27
2022-12-28T20:44:28.176Z,10.23
2022-12-28T20:46:57.664Z,10.12
2022-12-28T20:49:27.534Z,10.16
2022-12-28T20:51:56.246Z,10.30
2022-12-28T20:54:25.176Z,10.35
2022-12-28T20:56:56.327Z,10.38
2022-12-28T20:59:26.028Z,10.40
2022-12-28T21:01:54.869Z,10.38
2022-12-28T21:04:24.535Z,10.38
2022-12-28T21:06:53.227Z,10.35
2022-12-28T21:09:21.672Z,10.38
2022-12-28T21:11:49.997Z,10.40
2022-12-28T21:14:19.747Z,10.43
2022-12-28T21:16:48.420Z,10.44
2022-12-28T21:19:16.879Z,10.49
2022-12-28T21:21:45.144Z,10.55
2022-12-28T21:24:13.360Z,10.55
2022-12-28T21:26:41.626Z,10.69
2022-12-28T21:29:10.260Z,10.70
2022-12-28T21:31:40.186Z,10.72
2022-12-28T21:34:09.647Z,10.69
2022-12-28T21:36:37.932Z,10.68
2022-12-28T21:39:08.434Z,10.72
2022-12-28T21:41:52.810Z,10.79
2022-12-28T21:44:22.653Z,10.83
2022-12-28T21:46:53.362Z,10.87
2022-12-28T21:49:22.306Z,10.96
2022-12-28T21:51:51.524Z,10.94
2022-12-28T21:54:22.614Z,11.02
2022-12-28T21:56:53.571Z,11.00
2022-12-28T21:59:22.642Z,11.02
2022-12-28T22:02:06.921Z,11.04
2022-12-28T22:04:58.532Z,11.04
2022-12-28T22:07:30.959Z,11.10
2022-12-28T22:10:16.562Z,11.04
2022-12-28T22:12:44.860Z,11.01
2022-12-28T22:15:32.487Z,11.07
2022-12-28T22:18:07.063Z,11.07
2022-12-28T22:20:37.190Z,11.03
2022-12-28T22:23:07.460Z,10.98
2022-12-28T22:25:37.536Z,11.02
2022-12-28T22:28:07.419Z,11.00
2022-12-28T22:30:37.568Z,11.03
2022-12-28T22:33:07.530Z,11.04
2022-12-28T22:35:36.248Z,11.14
2022-12-28T22:38:04.400Z,11.09
2022-12-28T22:40:32.648Z,11.13
2022-12-28T22:43:00.903Z,11.10
2022-12-28T22:45:29.349Z,11.15
2022-12-28T22:47:59.541Z,11.12
2022-12-28T22:50:29.718Z,11.15
2022-12-28T22:52:58.351Z,11.14
2022-12-28T22:55:26.627Z,11.11
2022-12-28T22:57:57.335Z,11.01
2022-12-28T23:00:25.711Z,11.10
2022-12-28T23:02:54.131Z,11.00
2022-12-28T23:05:22.520Z,11.00
2022-12-28T23:07:52.124Z,10.95
2022-12-28T23:10:20.446Z,10.94
2022-12-28T23:12:48.746Z,10.90
2022-12-28T23:15:16.330Z,10.88
2022-12-28T23:17:44.606Z,10.87
2022-12-28T23:20:30.778Z,10.85
2022-12-28T23:23:17.947Z,10.82
2022-12-28T23:26:03.402Z,10.80
2022-12-28T23:28:32.051Z,10.74
2022-12-28T23:31:00.485Z,10.65
2022-12-28T23:33:28.836Z,10.51
2022-12-28T23:35:57.146Z,10.45
2022-12-28T23:38:26.791Z,10.45
2022-12-28T23:41:15.151Z,10.39
2022-12-28T23:43:43.390Z,10.42
2022-12-28T23:46:11.686Z,10.40
2022-12-28T23:48:39.984Z,10.39
2022-12-28T23:51:09.010Z,10.35
2022-12-28T23:53:38.586Z,10.48
2022-12-28T23:56:07.887Z,10.42
2022-12-28T23:58:36.137Z,10.40
